sensor_id;sensor_type;location;lat;lon;timestamp;P1;durP1;ratioP1;P2;durP2;ratioP2
13847;SDS011;6994;49.752;6.094;2023-05-07T00:01:32;6.75;;;6.15;;
13847;SDS011;6994;49.752;6.094;2023-05-07T00:04:00;6.18;;;5.57;;
13847;SDS011;6994;49.752;6.094;2023-05-07T00:06:28;6.85;;;5.65;;
13847;SDS011;6994;49.752;6.094;2023-05-07T00:08:56;6.10;;;5.50;;
13847;SDS011;6994;49.752;6.094;2023-05-07T00:11:24;6.70;;;5.95;;
13847;SDS011;6994;49.752;6.094;2023-05-07T00:13:53;6.72;;;6.07;;
13847;SDS011;6994;49.752;6.094;2023-05-07T00:16:20;5.78;;;5.12;;
13847;SDS011;6994;49.752;6.094;2023-05-07T00:18:47;8.18;;;5.82;;
13847;SDS011;6994;49.752;6.094;2023-05-07T00:21:14;7.10;;;6.50;;
13847;SDS011;6994;49.752;6.094;2023-05-07T00:23:42;9.35;;;8.45;;
13847;SDS011;6994;49.752;6.094;2023-05-07T00:26:10;8.23;;;7.40;;
13847;SDS011;6994;49.752;6.094;2023-05-07T00:28:38;9.38;;;7.10;;
13847;SDS011;6994;49.752;6.094;2023-05-07T00:31:06;7.43;;;6.15;;
13847;SDS011;6994;49.752;6.094;2023-05-07T00:33:34;8.60;;;7.20;;
13847;SDS011;6994;49.752;6.094;2023-05-07T00:36:02;7.32;;;6.43;;
13847;SDS011;6994;49.752;6.094;2023-05-07T00:38:30;9.32;;;6.82;;
13847;SDS011;6994;49.752;6.094;2023-05-07T00:40:57;6.37;;;5.78;;
13847;SDS011;6994;49.752;6.094;2023-05-07T00:43:25;8.98;;;7.28;;
13847;SDS011;6994;49.752;6.094;2023-05-07T00:45:52;8.35;;;6.75;;
13847;SDS011;6994;49.752;6.094;2023-05-07T00:48:19;7.57;;;6.85;;
13847;SDS011;6994;49.752;6.094;2023-05-07T00:50:46;9.90;;;9.00;;
13847;SDS011;6994;49.752;6.094;2023-05-07T00:53:13;11.15;;;8.35;;
13847;SDS011;6994;49.752;6.094;2023-05-07T00:55:41;11.70;;;10.50;;
13847;SDS011;6994;49.752;6.094;2023-05-07T00:58:08;9.93;;;8.90;;
13847;SDS011;6994;49.752;6.094;2023-05-07T01:00:35;8.82;;;7.95;;
13847;SDS011;6994;49.752;6.094;2023-05-07T01:03:03;9.27;;;6.20;;
13847;SDS011;6994;49.752;6.094;2023-05-07T01:05:30;6.72;;;6.03;;
13847;SDS011;6994;49.752;6.094;2023-05-07T01:07:57;7.85;;;5.85;;
13847;SDS011;6994;49.752;6.094;2023-05-07T01:10:25;9.85;;;5.78;;
13847;SDS011;6994;49.752;6.094;2023-05-07T01:12:52;6.20;;;5.60;;
13847;SDS011;6994;49.752;6.094;2023-05-07T01:15:19;7.53;;;6.93;;
13847;SDS011;6994;49.752;6.094;2023-05-07T01:17:46;6.62;;;6.10;;
13847;SDS011;6994;49.752;6.094;2023-05-07T01:20:13;7.97;;;7.15;;
13847;SDS011;6994;49.752;6.094;2023-05-07T01:22:41;8.60;;;7.25;;
13847;SDS011;6994;49.752;6.094;2023-05-07T01:25:08;11.02;;;9.18;;
13847;SDS011;6994;49.752;6.094;2023-05-07T01:27:35;11.88;;;8.85;;
13847;SDS011;6994;49.752;6.094;2023-05-07T01:30:03;7.62;;;6.62;;
13847;SDS011;6994;49.752;6.094;2023-05-07T01:32:36;10.35;;;7.22;;
13847;SDS011;6994;49.752;6.094;2023-05-07T01:35:07;7.65;;;6.78;;
13847;SDS011;6994;49.752;6.094;2023-05-07T01:37:34;9.63;;;6.28;;
13847;SDS011;6994;49.752;6.094;2023-05-07T01:40:01;7.45;;;6.70;;
13847;SDS011;6994;49.752;6.094;2023-05-07T01:42:28;9.00;;;8.20;;
13847;SDS011;6994;49.752;6.094;2023-05-07T01:44:55;7.20;;;6.60;;
13847;SDS011;6994;49.752;6.094;2023-05-07T01:47:22;8.25;;;6.97;;
13847;SDS011;6994;49.752;6.094;2023-05-07T01:49:50;8.05;;;7.28;;
13847;SDS011;6994;49.752;6.094;2023-05-07T01:52:17;7.97;;;7.15;;
13847;SDS011;6994;49.752;6.094;2023-05-07T01:54:44;7.70;;;5.97;;
13847;SDS011;6994;49.752;6.094;2023-05-07T01:57:11;7.93;;;6.20;;
13847;SDS011;6994;49.752;6.094;2023-05-07T01:59:39;8.40;;;7.00;;
13847;SDS011;6994;49.752;6.094;2023-05-07T02:02:06;8.00;;;7.20;;
13847;SDS011;6994;49.752;6.094;2023-05-07T02:04:34;8.30;;;7.07;;
13847;SDS011;6994;49.752;6.094;2023-05-07T02:07:01;10.38;;;9.45;;
13847;SDS011;6994;49.752;6.094;2023-05-07T02:09:28;8.30;;;7.53;;
13847;SDS011;6994;49.752;6.094;2023-05-07T02:11:55;10.05;;;9.18;;
13847;SDS011;6994;49.752;6.094;2023-05-07T02:14:22;8.40;;;7.60;;
13847;SDS011;6994;49.752;6.094;2023-05-07T02:16:50;7.85;;;7.10;;
13847;SDS011;6994;49.752;6.094;2023-05-07T02:19:17;7.45;;;6.78;;
13847;SDS011;6994;49.752;6.094;2023-05-07T02:21:44;7.55;;;6.45;;
13847;SDS011;6994;49.752;6.094;2023-05-07T02:24:12;6.90;;;6.25;;
13847;SDS011;6994;49.752;6.094;2023-05-07T02:26:40;5.80;;;5.30;;
13847;SDS011;6994;49.752;6.094;2023-05-07T02:29:08;5.43;;;5.03;;
13847;SDS011;6994;49.752;6.094;2023-05-07T02:31:35;66.87;;;6.20;;
13847;SDS011;6994;49.752;6.094;2023-05-07T02:34:02;4.32;;;3.97;;
13847;SDS011;6994;49.752;6.094;2023-05-07T02:36:30;5.25;;;4.80;;
13847;SDS011;6994;49.752;6.094;2023-05-07T02:38:57;5.97;;;5.37;;
13847;SDS011;6994;49.752;6.094;2023-05-07T02:41:24;6.57;;;5.97;;
13847;SDS011;6994;49.752;6.094;2023-05-07T02:43:51;6.60;;;5.90;;
13847;SDS011;6994;49.752;6.094;2023-05-07T02:46:18;11.23;;;6.40;;
13847;SDS011;6994;49.752;6.094;2023-05-07T02:48:46;7.12;;;6.45;;
13847;SDS011;6994;49.752;6.094;2023-05-07T02:51:13;6.85;;;6.18;;
13847;SDS011;6994;49.752;6.094;2023-05-07T02:53:41;7.72;;;6.53;;
13847;SDS011;6994;49.752;6.094;2023-05-07T02:56:09;7.03;;;6.32;;
13847;SDS011;6994;49.752;6.094;2023-05-07T02:58:37;6.10;;;5.50;;
13847;SDS011;6994;49.752;6.094;2023-05-07T03:01:05;6.57;;;5.97;;
13847;SDS011;6994;49.752;6.094;2023-05-07T03:03:32;7.60;;;6.35;;
13847;SDS011;6994;49.752;6.094;2023-05-07T03:05:59;5.90;;;5.40;;
13847;SDS011;6994;49.752;6.094;2023-05-07T03:08:26;7.15;;;6.32;;
13847;SDS011;6994;49.752;6.094;2023-05-07T03:10:53;17.45;;;7.30;;
13847;SDS011;6994;49.752;6.094;2023-05-07T03:13:21;8.32;;;7.05;;
13847;SDS011;6994;49.752;6.094;2023-05-07T03:15:48;15.98;;;7.70;;
13847;SDS011;6994;49.752;6.094;2023-05-07T03:18:15;7.80;;;6.87;;
13847;SDS011;6994;49.752;6.094;2023-05-07T03:20:42;7.40;;;6.62;;
13847;SDS011;6994;49.752;6.094;2023-05-07T03:23:09;7.82;;;6.87;;
13847;SDS011;6994;49.752;6.094;2023-05-07T03:25:37;9.48;;;6.45;;
13847;SDS011;6994;49.752;6.094;2023-05-07T03:28:05;7.18;;;6.47;;
13847;SDS011;6994;49.752;6.094;2023-05-07T03:30:33;9.05;;;6.32;;
13847;SDS011;6994;49.752;6.094;2023-05-07T03:33:00;7.32;;;6.55;;
13847;SDS011;6994;49.752;6.094;2023-05-07T03:35:27;9.77;;;8.93;;
13847;SDS011;6994;49.752;6.094;2023-05-07T03:37:54;8.07;;;7.37;;
13847;SDS011;6994;49.752;6.094;2023-05-07T03:40:21;7.57;;;6.70;;
13847;SDS011;6994;49.752;6.094;2023-05-07T03:42:49;7.78;;;7.03;;
13847;SDS011;6994;49.752;6.094;2023-05-07T03:45:16;10.50;;;9.50;;
13847;SDS011;6994;49.752;6.094;2023-05-07T03:47:43;7.43;;;6.78;;
13847;SDS011;6994;49.752;6.094;2023-05-07T03:50:10;7.22;;;6.53;;
13847;SDS011;6994;49.752;6.094;2023-05-07T03:52:37;8.00;;;6.53;;
13847;SDS011;6994;49.752;6.094;2023-05-07T03:55:05;7.78;;;7.07;;
13847;SDS011;6994;49.752;6.094;2023-05-07T03:57:32;7.15;;;6.03;;
13847;SDS011;6994;49.752;6.094;2023-05-07T04:00:00;7.18;;;6.50;;
13847;SDS011;6994;49.752;6.094;2023-05-07T04:02:28;7.22;;;5.85;;
13847;SDS011;6994;49.752;6.094;2023-05-07T04:04:56;6.87;;;6.18;;
13847;SDS011;6994;49.752;6.094;2023-05-07T04:07:23;7.22;;;6.53;;
13847;SDS011;6994;49.752;6.094;2023-05-07T04:09:50;6.55;;;5.97;;
13847;SDS011;6994;49.752;6.094;2023-05-07T04:12:17;7.00;;;6.30;;
13847;SDS011;6994;49.752;6.094;2023-05-07T04:14:45;6.60;;;6.10;;
13847;SDS011;6994;49.752;6.094;2023-05-07T04:17:12;6.30;;;5.80;;
13847;SDS011;6994;49.752;6.094;2023-05-07T04:19:39;6.62;;;5.93;;
13847;SDS011;6994;49.752;6.094;2023-05-07T04:22:06;6.15;;;5.65;;
13847;SDS011;6994;49.752;6.094;2023-05-07T04:24:33;6.60;;;5.90;;
13847;SDS011;6994;49.752;6.094;2023-05-07T04:27:01;5.80;;;5.28;;
13847;SDS011;6994;49.752;6.094;2023-05-07T04:29:28;6.70;;;5.87;;
13847;SDS011;6994;49.752;6.094;2023-05-07T04:31:55;5.97;;;5.40;;
13847;SDS011;6994;49.752;6.094;2023-05-07T04:34:22;6.05;;;5.30;;
13847;SDS011;6994;49.752;6.094;2023-05-07T04:36:49;6.20;;;5.25;;
13847;SDS011;6994;49.752;6.094;2023-05-07T04:39:17;6.72;;;5.65;;
13847;SDS011;6994;49.752;6.094;2023-05-07T04:41:44;6.25;;;5.75;;
13847;SDS011;6994;49.752;6.094;2023-05-07T04:44:11;6.65;;;6.05;;
13847;SDS011;6994;49.752;6.094;2023-05-07T04:46:38;5.85;;;5.35;;
13847;SDS011;6994;49.752;6.094;2023-05-07T04:49:05;8.73;;;5.47;;
13847;SDS011;6994;49.752;6.094;2023-05-07T04:51:33;5.97;;;5.47;;
13847;SDS011;6994;49.752;6.094;2023-05-07T04:54:00;6.65;;;6.03;;
13847;SDS011;6994;49.752;6.094;2023-05-07T04:56:28;7.45;;;6.18;;
13847;SDS011;6994;49.752;6.094;2023-05-07T04:58:55;7.82;;;7.12;;
13847;SDS011;6994;49.752;6.094;2023-05-07T05:01:23;6.10;;;5.53;;
13847;SDS011;6994;49.752;6.094;2023-05-07T05:03:51;6.75;;;6.15;;
13847;SDS011;6994;49.752;6.094;2023-05-07T05:06:19;6.80;;;6.10;;
13847;SDS011;6994;49.752;6.094;2023-05-07T05:08:47;7.00;;;6.40;;
13847;SDS011;6994;49.752;6.094;2023-05-07T05:11:14;8.00;;;7.30;;
13847;SDS011;6994;49.752;6.094;2023-05-07T05:13:41;6.75;;;6.15;;
13847;SDS011;6994;49.752;6.094;2023-05-07T05:16:09;12.37;;;6.10;;
13847;SDS011;6994;49.752;6.094;2023-05-07T05:18:36;6.20;;;5.70;;
13847;SDS011;6994;49.752;6.094;2023-05-07T05:21:03;6.30;;;5.70;;
13847;SDS011;6994;49.752;6.094;2023-05-07T05:23:30;5.25;;;4.85;;
13847;SDS011;6994;49.752;6.094;2023-05-07T05:25:57;4.90;;;4.50;;
13847;SDS011;6994;49.752;6.094;2023-05-07T05:28:25;5.37;;;4.85;;
13847;SDS011;6994;49.752;6.094;2023-05-07T05:30:53;3.87;;;3.40;;
13847;SDS011;6994;49.752;6.094;2023-05-07T05:33:20;4.40;;;3.72;;
13847;SDS011;6994;49.752;6.094;2023-05-07T05:35:49;4.47;;;4.18;;
13847;SDS011;6994;49.752;6.094;2023-05-07T05:38:16;4.37;;;4.07;;
13847;SDS011;6994;49.752;6.094;2023-05-07T05:40:43;4.70;;;4.10;;
13847;SDS011;6994;49.752;6.094;2023-05-07T05:43:10;4.50;;;4.20;;
13847;SDS011;6994;49.752;6.094;2023-05-07T05:45:37;4.72;;;4.30;;
13847;SDS011;6994;49.752;6.094;2023-05-07T05:48:05;4.72;;;4.05;;
13847;SDS011;6994;49.752;6.094;2023-05-07T05:50:32;4.60;;;4.20;;
13847;SDS011;6994;49.752;6.094;2023-05-07T05:52:59;7.55;;;4.93;;
13847;SDS011;6994;49.752;6.094;2023-05-07T05:55:26;4.90;;;4.50;;
13847;SDS011;6994;49.752;6.094;2023-05-07T05:57:53;5.35;;;4.93;;
13847;SDS011;6994;49.752;6.094;2023-05-07T06:00:21;5.30;;;4.90;;
13847;SDS011;6994;49.752;6.094;2023-05-07T06:02:49;5.10;;;4.70;;
13847;SDS011;6994;49.752;6.094;2023-05-07T06:05:16;4.50;;;3.92;;
13847;SDS011;6994;49.752;6.094;2023-05-07T06:07:44;4.22;;;3.83;;
13847;SDS011;6994;49.752;6.094;2023-05-07T06:10:12;5.10;;;4.70;;
13847;SDS011;6994;49.752;6.094;2023-05-07T06:12:40;4.43;;;4.10;;
13847;SDS011;6994;49.752;6.094;2023-05-07T06:15:08;4.95;;;4.40;;
13847;SDS011;6994;49.752;6.094;2023-05-07T06:17:35;5.10;;;4.70;;
13847;SDS011;6994;49.752;6.094;2023-05-07T06:20:02;4.65;;;4.25;;
13847;SDS011;6994;49.752;6.094;2023-05-07T06:22:30;5.35;;;4.32;;
13847;SDS011;6994;49.752;6.094;2023-05-07T06:24:57;4.22;;;3.40;;
13847;SDS011;6994;49.752;6.094;2023-05-07T06:27:24;3.90;;;3.60;;
13847;SDS011;6994;49.752;6.094;2023-05-07T06:29:51;3.35;;;3.05;;
13847;SDS011;6994;49.752;6.094;2023-05-07T06:32:18;3.40;;;3.20;;
13847;SDS011;6994;49.752;6.094;2023-05-07T06:34:46;5.57;;;3.03;;
13847;SDS011;6994;49.752;6.094;2023-05-07T06:37:13;2.95;;;2.75;;
13847;SDS011;6994;49.752;6.094;2023-05-07T06:39:40;3.78;;;3.25;;
13847;SDS011;6994;49.752;6.094;2023-05-07T06:42:08;2.85;;;2.65;;
13847;SDS011;6994;49.752;6.094;2023-05-07T06:44:36;3.92;;;2.80;;
13847;SDS011;6994;49.752;6.094;2023-05-07T06:47:04;5.72;;;3.03;;
13847;SDS011;6994;49.752;6.094;2023-05-07T06:49:32;3.87;;;3.00;;
13847;SDS011;6994;49.752;6.094;2023-05-07T06:52:00;3.37;;;2.90;;
13847;SDS011;6994;49.752;6.094;2023-05-07T06:54:27;3.45;;;3.15;;
13847;SDS011;6994;49.752;6.094;2023-05-07T06:56:54;3.08;;;2.87;;
13847;SDS011;6994;49.752;6.094;2023-05-07T06:59:21;4.80;;;3.47;;
13847;SDS011;6994;49.752;6.094;2023-05-07T07:01:49;3.03;;;2.67;;
13847;SDS011;6994;49.752;6.094;2023-05-07T07:04:16;3.62;;;3.00;;
13847;SDS011;6994;49.752;6.094;2023-05-07T07:06:43;5.05;;;2.80;;
13847;SDS011;6994;49.752;6.094;2023-05-07T07:09:10;2.80;;;2.60;;
13847;SDS011;6994;49.752;6.094;2023-05-07T07:11:37;2.65;;;2.37;;
13847;SDS011;6994;49.752;6.094;2023-05-07T07:14:05;2.92;;;2.72;;
13847;SDS011;6994;49.752;6.094;2023-05-07T07:16:33;3.05;;;2.72;;
13847;SDS011;6994;49.752;6.094;2023-05-07T07:19:01;3.20;;;2.60;;
13847;SDS011;6994;49.752;6.094;2023-05-07T07:21:28;2.92;;;2.72;;
13847;SDS011;6994;49.752;6.094;2023-05-07T07:23:55;3.10;;;2.85;;
13847;SDS011;6994;49.752;6.094;2023-05-07T07:26:22;4.28;;;2.28;;
13847;SDS011;6994;49.752;6.094;2023-05-07T07:28:49;2.22;;;1.98;;
13847;SDS011;6994;49.752;6.094;2023-05-07T07:31:17;3.58;;;2.35;;
13847;SDS011;6994;49.752;6.094;2023-05-07T07:33:44;3.70;;;2.10;;
13847;SDS011;6994;49.752;6.094;2023-05-07T07:36:11;3.22;;;2.60;;
13847;SDS011;6994;49.752;6.094;2023-05-07T07:38:38;2.62;;;2.00;;
13847;SDS011;6994;49.752;6.094;2023-05-07T07:41:07;2.53;;;2.17;;
13847;SDS011;6994;49.752;6.094;2023-05-07T07:43:33;3.05;;;2.20;;
13847;SDS011;6994;49.752;6.094;2023-05-07T07:46:00;2.00;;;1.90;;
13847;SDS011;6994;49.752;6.094;2023-05-07T07:48:28;2.33;;;2.12;;
13847;SDS011;6994;49.752;6.094;2023-05-07T07:50:56;2.83;;;2.15;;
13847;SDS011;6994;49.752;6.094;2023-05-07T07:53:23;2.60;;;1.77;;
13847;SDS011;6994;49.752;6.094;2023-05-07T07:55:50;2.10;;;2.00;;
13847;SDS011;6994;49.752;6.094;2023-05-07T07:58:17;3.70;;;2.53;;
13847;SDS011;6994;49.752;6.094;2023-05-07T08:00:45;4.07;;;2.05;;
13847;SDS011;6994;49.752;6.094;2023-05-07T08:03:12;3.55;;;1.77;;
13847;SDS011;6994;49.752;6.094;2023-05-07T08:05:39;2.35;;;2.15;;
13847;SDS011;6994;49.752;6.094;2023-05-07T08:08:06;4.68;;;2.22;;
13847;SDS011;6994;49.752;6.094;2023-05-07T08:10:34;1.87;;;1.55;;
13847;SDS011;6994;49.752;6.094;2023-05-07T08:13:02;3.53;;;1.87;;
13847;SDS011;6994;49.752;6.094;2023-05-07T08:15:30;1.80;;;1.70;;
13847;SDS011;6994;49.752;6.094;2023-05-07T08:17:58;2.37;;;1.92;;
13847;SDS011;6994;49.752;6.094;2023-05-07T08:20:25;3.10;;;1.75;;
13847;SDS011;6994;49.752;6.094;2023-05-07T08:22:52;3.08;;;1.90;;
13847;SDS011;6994;49.752;6.094;2023-05-07T08:25:19;2.53;;;2.33;;
13847;SDS011;6994;49.752;6.094;2023-05-07T08:27:46;2.10;;;2.00;;
13847;SDS011;6994;49.752;6.094;2023-05-07T08:30:13;2.83;;;2.00;;
13847;SDS011;6994;49.752;6.094;2023-05-07T08:32:41;2.50;;;2.10;;
13847;SDS011;6994;49.752;6.094;2023-05-07T08:35:09;3.00;;;2.67;;
13847;SDS011;6994;49.752;6.094;2023-05-07T08:37:37;6.15;;;2.60;;
13847;SDS011;6994;49.752;6.094;2023-05-07T08:40:04;2.70;;;2.30;;
13847;SDS011;6994;49.752;6.094;2023-05-07T08:42:31;2.70;;;2.50;;
13847;SDS011;6994;49.752;6.094;2023-05-07T08:44:58;2.20;;;2.00;;
13847;SDS011;6994;49.752;6.094;2023-05-07T08:47:27;3.95;;;2.62;;
13847;SDS011;6994;49.752;6.094;2023-05-07T08:49:53;5.07;;;2.42;;
13847;SDS011;6994;49.752;6.094;2023-05-07T08:52:20;2.60;;;2.40;;
13847;SDS011;6994;49.752;6.094;2023-05-07T08:54:47;3.42;;;2.75;;
13847;SDS011;6994;49.752;6.094;2023-05-07T08:57:14;4.53;;;2.35;;
13847;SDS011;6994;49.752;6.094;2023-05-07T08:59:42;2.80;;;2.60;;
13847;SDS011;6994;49.752;6.094;2023-05-07T09:02:10;2.75;;;2.15;;
13847;SDS011;6994;49.752;6.094;2023-05-07T09:04:38;3.37;;;1.98;;
13847;SDS011;6994;49.752;6.094;2023-05-07T09:07:05;6.15;;;2.40;;
13847;SDS011;6994;49.752;6.094;2023-05-07T09:09:32;3.20;;;2.45;;
13847;SDS011;6994;49.752;6.094;2023-05-07T09:11:59;2.12;;;2.03;;
13847;SDS011;6994;49.752;6.094;2023-05-07T09:14:26;3.83;;;2.47;;
13847;SDS011;6994;49.752;6.094;2023-05-07T09:16:54;2.40;;;2.20;;
13847;SDS011;6994;49.752;6.094;2023-05-07T09:19:24;2.05;;;1.85;;
13847;SDS011;6994;49.752;6.094;2023-05-07T09:22:04;1.87;;;1.73;;
13847;SDS011;6994;49.752;6.094;2023-05-07T09:24:30;2.03;;;1.87;;
13847;SDS011;6994;49.752;6.094;2023-05-07T09:26:57;3.65;;;2.25;;
13847;SDS011;6994;49.752;6.094;2023-05-07T09:29:25;3.17;;;1.92;;
13847;SDS011;6994;49.752;6.094;2023-05-07T09:31:52;2.70;;;1.92;;
13847;SDS011;6994;49.752;6.094;2023-05-07T09:34:19;2.80;;;2.30;;
13847;SDS011;6994;49.752;6.094;2023-05-07T09:36:46;2.30;;;2.08;;
13847;SDS011;6994;49.752;6.094;2023-05-07T09:39:13;4.45;;;2.30;;
13847;SDS011;6994;49.752;6.094;2023-05-07T09:41:44;1.83;;;1.60;;
13847;SDS011;6994;49.752;6.094;2023-05-07T09:44:11;2.72;;;2.30;;
13847;SDS011;6994;49.752;6.094;2023-05-07T09:46:38;2.78;;;2.10;;
13847;SDS011;6994;49.752;6.094;2023-05-07T09:49:05;2.53;;;1.90;;
13847;SDS011;6994;49.752;6.094;2023-05-07T09:51:39;2.85;;;1.95;;
13847;SDS011;6994;49.752;6.094;2023-05-07T09:54:06;3.30;;;2.53;;
13847;SDS011;6994;49.752;6.094;2023-05-07T09:56:33;1.98;;;1.83;;
13847;SDS011;6994;49.752;6.094;2023-05-07T09:59:00;2.20;;;2.00;;
13847;SDS011;6994;49.752;6.094;2023-05-07T10:01:27;2.67;;;2.47;;
13847;SDS011;6994;49.752;6.094;2023-05-07T10:03:54;3.25;;;2.15;;
13847;SDS011;6994;49.752;6.094;2023-05-07T10:06:22;2.55;;;1.85;;
13847;SDS011;6994;49.752;6.094;2023-05-07T10:08:49;3.12;;;2.05;;
13847;SDS011;6994;49.752;6.094;2023-05-07T10:11:16;5.28;;;2.42;;
13847;SDS011;6994;49.752;6.094;2023-05-07T10:13:43;2.72;;;2.10;;
13847;SDS011;6994;49.752;6.094;2023-05-07T10:16:10;2.37;;;1.87;;
13847;SDS011;6994;49.752;6.094;2023-05-07T10:18:38;2.30;;;2.10;;
13847;SDS011;6994;49.752;6.094;2023-05-07T10:21:11;4.60;;;3.03;;
13847;SDS011;6994;49.752;6.094;2023-05-07T10:23:38;4.00;;;1.90;;
13847;SDS011;6994;49.752;6.094;2023-05-07T10:26:06;2.22;;;1.65;;
13847;SDS011;6994;49.752;6.094;2023-05-07T10:28:38;4.15;;;1.92;;
13847;SDS011;6994;49.752;6.094;2023-05-07T10:31:10;2.30;;;1.70;;
13847;SDS011;6994;49.752;6.094;2023-05-07T10:33:35;1.48;;;1.37;;
13847;SDS011;6994;49.752;6.094;2023-05-07T10:36:03;2.83;;;1.50;;
13847;SDS011;6994;49.752;6.094;2023-05-07T10:38:31;2.47;;;1.60;;
13847;SDS011;6994;49.752;6.094;2023-05-07T10:40:58;3.17;;;2.08;;
13847;SDS011;6994;49.752;6.094;2023-05-07T10:43:25;1.40;;;1.30;;
13847;SDS011;6994;49.752;6.094;2023-05-07T10:49:06;3.08;;;1.50;;
13847;SDS011;6994;49.752;6.094;2023-05-07T10:51:26;2.23;;;1.63;;
13847;SDS011;6994;49.752;6.094;2023-05-07T10:56:38;2.53;;;1.25;;
13847;SDS011;6994;49.752;6.094;2023-05-07T11:01:52;1.45;;;1.10;;
13847;SDS011;6994;49.752;6.094;2023-05-07T11:04:20;1.98;;;1.30;;
13847;SDS011;6994;49.752;6.094;2023-05-07T11:17:31;1.40;;;1.08;;
13847;SDS011;6994;49.752;6.094;2023-05-07T11:19:59;2.62;;;1.20;;
13847;SDS011;6994;49.752;6.094;2023-05-07T11:25:00;1.10;;;1.05;;
13847;SDS011;6994;49.752;6.094;2023-05-07T11:27:28;1.95;;;1.20;;
13847;SDS011;6994;49.752;6.094;2023-05-07T11:29:56;2.12;;;1.10;;
13847;SDS011;6994;49.752;6.094;2023-05-07T11:32:27;1.20;;;1.10;;
13847;SDS011;6994;49.752;6.094;2023-05-07T11:34:58;1.10;;;0.98;;
13847;SDS011;6994;49.752;6.094;2023-05-07T11:37:21;1.73;;;1.02;;
13847;SDS011;6994;49.752;6.094;2023-05-07T11:39:48;3.35;;;1.35;;
13847;SDS011;6994;49.752;6.094;2023-05-07T11:42:25;3.10;;;1.55;;
13847;SDS011;6994;49.752;6.094;2023-05-07T11:44:54;1.92;;;1.27;;
13847;SDS011;6994;49.752;6.094;2023-05-07T11:47:22;1.50;;;1.27;;
13847;SDS011;6994;49.752;6.094;2023-05-07T11:49:51;3.62;;;1.67;;
13847;SDS011;6994;49.752;6.094;2023-05-07T11:52:18;2.15;;;1.50;;
13847;SDS011;6994;49.752;6.094;2023-05-07T11:54:51;3.03;;;1.52;;
13847;SDS011;6994;49.752;6.094;2023-05-07T11:57:18;4.65;;;1.58;;
13847;SDS011;6994;49.752;6.094;2023-05-07T11:59:45;2.58;;;1.35;;
13847;SDS011;6994;49.752;6.094;2023-05-07T12:02:15;2.83;;;1.42;;
13847;SDS011;6994;49.752;6.094;2023-05-07T12:04:43;1.62;;;1.17;;
13847;SDS011;6994;49.752;6.094;2023-05-07T12:07:16;1.50;;;1.00;;
13847;SDS011;6994;49.752;6.094;2023-05-07T12:09:40;2.08;;;1.33;;
13847;SDS011;6994;49.752;6.094;2023-05-07T12:12:10;1.50;;;1.40;;
13847;SDS011;6994;49.752;6.094;2023-05-07T12:14:41;3.10;;;1.25;;
13847;SDS011;6994;49.752;6.094;2023-05-07T12:17:05;1.45;;;1.35;;
13847;SDS011;6994;49.752;6.094;2023-05-07T12:19:33;2.45;;;1.20;;
13847;SDS011;6994;49.752;6.094;2023-05-07T12:22:02;1.27;;;1.17;;
13847;SDS011;6994;49.752;6.094;2023-05-07T12:24:28;2.28;;;2.08;;
13847;SDS011;6994;49.752;6.094;2023-05-07T12:26:55;2.55;;;1.60;;
13847;SDS011;6994;49.752;6.094;2023-05-07T12:29:22;1.87;;;1.27;;
13847;SDS011;6994;49.752;6.094;2023-05-07T12:31:50;1.27;;;1.15;;
13847;SDS011;6994;49.752;6.094;2023-05-07T12:34:17;1.48;;;1.00;;
13847;SDS011;6994;49.752;6.094;2023-05-07T12:36:45;3.17;;;1.30;;
13847;SDS011;6994;49.752;6.094;2023-05-07T12:39:13;2.83;;;1.40;;
13847;SDS011;6994;49.752;6.094;2023-05-07T12:41:54;1.83;;;1.23;;
13847;SDS011;6994;49.752;6.094;2023-05-07T12:44:28;1.20;;;1.10;;
13847;SDS011;6994;49.752;6.094;2023-05-07T12:46:51;1.45;;;1.10;;
13847;SDS011;6994;49.752;6.094;2023-05-07T12:49:18;3.20;;;1.35;;
13847;SDS011;6994;49.752;6.094;2023-05-07T12:51:48;1.77;;;1.25;;
13847;SDS011;6994;49.752;6.094;2023-05-07T12:54:31;1.40;;;1.30;;
13847;SDS011;6994;49.752;6.094;2023-05-07T12:57:08;2.10;;;1.30;;
13847;SDS011;6994;49.752;6.094;2023-05-07T12:59:35;2.17;;;1.33;;
13847;SDS011;6994;49.752;6.094;2023-05-07T13:02:04;3.42;;;1.35;;
13847;SDS011;6994;49.752;6.094;2023-05-07T13:04:32;2.25;;;1.00;;
13847;SDS011;6994;49.752;6.094;2023-05-07T13:07:00;1.35;;;0.90;;
13847;SDS011;6994;49.752;6.094;2023-05-07T13:09:28;2.05;;;1.23;;
13847;SDS011;6994;49.752;6.094;2023-05-07T13:11:58;3.55;;;1.10;;
13847;SDS011;6994;49.752;6.094;2023-05-07T13:14:27;2.37;;;1.02;;
13847;SDS011;6994;49.752;6.094;2023-05-07T13:16:55;2.62;;;1.50;;
13847;SDS011;6994;49.752;6.094;2023-05-07T13:19:22;4.37;;;1.47;;
13847;SDS011;6994;49.752;6.094;2023-05-07T13:21:49;2.10;;;1.45;;
13847;SDS011;6994;49.752;6.094;2023-05-07T13:24:16;2.92;;;1.42;;
13847;SDS011;6994;49.752;6.094;2023-05-07T13:26:43;3.10;;;1.40;;
13847;SDS011;6994;49.752;6.094;2023-05-07T13:29:11;1.30;;;1.10;;
13847;SDS011;6994;49.752;6.094;2023-05-07T13:31:38;1.50;;;1.40;;
13847;SDS011;6994;49.752;6.094;2023-05-07T13:34:05;1.83;;;1.70;;
13847;SDS011;6994;49.752;6.094;2023-05-07T13:36:32;2.10;;;1.55;;
13847;SDS011;6994;49.752;6.094;2023-05-07T13:38:59;2.75;;;1.55;;
13847;SDS011;6994;49.752;6.094;2023-05-07T13:41:27;3.83;;;1.87;;
13847;SDS011;6994;49.752;6.094;2023-05-07T13:43:54;3.90;;;1.20;;
13847;SDS011;6994;49.752;6.094;2023-05-07T13:46:21;1.80;;;1.42;;
13847;SDS011;6994;49.752;6.094;2023-05-07T13:48:48;2.95;;;1.75;;
13847;SDS011;6994;49.752;6.094;2023-05-07T13:51:16;4.32;;;1.85;;
13847;SDS011;6994;49.752;6.094;2023-05-07T13:53:43;2.75;;;1.40;;
13847;SDS011;6994;49.752;6.094;2023-05-07T13:56:10;1.77;;;1.67;;
13847;SDS011;6994;49.752;6.094;2023-05-07T13:58:38;1.95;;;1.58;;
13847;SDS011;6994;49.752;6.094;2023-05-07T14:01:05;1.80;;;1.65;;
13847;SDS011;6994;49.752;6.094;2023-05-07T14:03:32;2.22;;;1.50;;
13847;SDS011;6994;49.752;6.094;2023-05-07T14:06:00;9.27;;;2.85;;
13847;SDS011;6994;49.752;6.094;2023-05-07T14:08:27;1.87;;;1.67;;
13847;SDS011;6994;49.752;6.094;2023-05-07T14:10:55;4.53;;;1.65;;
13847;SDS011;6994;49.752;6.094;2023-05-07T14:13:22;2.55;;;2.03;;
13847;SDS011;6994;49.752;6.094;2023-05-07T14:15:49;2.58;;;1.90;;
13847;SDS011;6994;49.752;6.094;2023-05-07T14:18:16;1.73;;;1.62;;
13847;SDS011;6994;49.752;6.094;2023-05-07T14:20:43;3.37;;;1.92;;
13847;SDS011;6994;49.752;6.094;2023-05-07T14:23:11;2.67;;;1.60;;
13847;SDS011;6994;49.752;6.094;2023-05-07T14:25:38;4.32;;;2.25;;
13847;SDS011;6994;49.752;6.094;2023-05-07T14:28:05;2.67;;;1.60;;
13847;SDS011;6994;49.752;6.094;2023-05-07T14:30:32;2.37;;;1.60;;
13847;SDS011;6994;49.752;6.094;2023-05-07T14:33:00;2.28;;;1.75;;
13847;SDS011;6994;49.752;6.094;2023-05-07T14:35:27;3.72;;;2.10;;
13847;SDS011;6994;49.752;6.094;2023-05-07T14:37:55;1.95;;;1.77;;
13847;SDS011;6994;49.752;6.094;2023-05-07T14:40:22;4.00;;;1.80;;
13847;SDS011;6994;49.752;6.094;2023-05-07T14:42:49;1.95;;;1.77;;
13847;SDS011;6994;49.752;6.094;2023-05-07T14:45:16;3.90;;;1.60;;
13847;SDS011;6994;49.752;6.094;2023-05-07T14:47:44;2.55;;;2.10;;
13847;SDS011;6994;49.752;6.094;2023-05-07T14:50:11;2.62;;;1.98;;
13847;SDS011;6994;49.752;6.094;2023-05-07T14:52:38;3.35;;;1.80;;
13847;SDS011;6994;49.752;6.094;2023-05-07T14:55:05;4.20;;;2.00;;
13847;SDS011;6994;49.752;6.094;2023-05-07T14:57:32;2.65;;;1.90;;
13847;SDS011;6994;49.752;6.094;2023-05-07T15:00:04;3.00;;;2.17;;
13847;SDS011;6994;49.752;6.094;2023-05-07T15:02:28;2.78;;;1.90;;
13847;SDS011;6994;49.752;6.094;2023-05-07T15:04:56;2.35;;;1.92;;
13847;SDS011;6994;49.752;6.094;2023-05-07T15:07:24;2.92;;;1.65;;
13847;SDS011;6994;49.752;6.094;2023-05-07T15:09:52;4.35;;;2.47;;
13847;SDS011;6994;49.752;6.094;2023-05-07T15:12:20;2.20;;;1.67;;
13847;SDS011;6994;49.752;6.094;2023-05-07T15:14:47;2.37;;;2.05;;
13847;SDS011;6994;49.752;6.094;2023-05-07T15:17:14;2.97;;;2.30;;
13847;SDS011;6994;49.752;6.094;2023-05-07T15:19:41;2.90;;;2.12;;
13847;SDS011;6994;49.752;6.094;2023-05-07T15:22:08;2.25;;;1.92;;
13847;SDS011;6994;49.752;6.094;2023-05-07T15:24:36;4.05;;;2.50;;